CheckWX is a tool to help pilots better visualize weather data.  It is not intended as a substitute for an official pre-flight weather briefing.

21:38:39 UTC

EFOU TAF
Oulu Airport
Oulu / Oulunsalo, Finland
TAF EFOU 052028Z 0521/0621 22009KT 9999 BKN015 PROB30 0521/0524 BKN014 BECMG 0607/0609 BKN004

Dec-5@
21:00 UTC

Dec-5 @ 21:00 UTC

Dec-6@
07:00 UTC

Dec-6 @ 07:00 UTC

TAF EFOU 052028Z 0521/0621 22009KT 9999 BKN015
Wind
  • 220° at 9 KTS
Cloud Levels
  • Broken at 1,500' AGL

Dec-5@
21:00 UTC

Dec-5 @ 21:00 UTC

Dec-6@
00:00 UTC

Dec-6 @ 00:00 UTC

PROB30 0521/0524 BKN014

Probable - 30% Likelihood

Probable - 30% Likelihood during this time.

Cloud Levels
  • Broken at 1,400' AGL

Dec-6@
07:00 UTC

Dec-6 @ 07:00 UTC

Dec-6@
21:00 UTC

Dec-6 @ 21:00 UTC

BECMG 0607/0609 BKN004

Becoming

Becoming Conditions expected by Fri, Dec 6, 2019 @ 09:00 UTC

Wind
  • 220° at 9 KTS
Cloud Levels
  • Broken at 400' AGL